Gratiot, Ohio
Current Conditions -  °F | °C
As of 5:54 AM on Friday 21 Nov 2014 (Local Time) from KVTA Reporting Station
Clear Clear  
Wind Chill: -11°   Ceiling: Unl
Heat Index: -11°   Visibility: 10mi
Dew Point: -15°   Wind: 0mph
Humidity: 73%   Direction: NA
Pressure: 30.37"   Gusts: NA
Location:  39.95°N, 82.22°W
Report Text: KVTA 211054Z AUTO 00000KT 10SM CLR M11/M15 A3037 RMK AO2 SLP298 T11111150
Loading
Personal Weather Stations






























Interactive Weather Map New forecast layout! Learn more

10-Day Weather Forecast

Advertisements
Track Severe Weather on mobile